Time;durP1;ratioP1;P1;durP2;ratioP2;P2;SDS_P1;SDS_P2;PMS_P1;PMS_P2;Temp;Humidity;BMP_temperature;BMP_pressure;BME280_temperature;BME280_humidity;BME280_pressure;Samples;Min_cycle;Max_cycle;Signal;HPM_P1;HPM_P2
2021/12/02 00:02:23;;;;;;;19.17;2.97;;;;;;;;;;5052952;28;20201;-66
2021/12/02 00:04:50;;;;;;;16.23;2.65;;;;;;;;;;5052758;28;20190;-65
2021/12/02 00:07:17;;;;;;;12.20;3.28;;;;;;;;;;5043884;28;20187;-64
2021/12/02 00:09:44;;;;;;;6.13;2.03;;;;;;;;;;5046449;28;20211;-65
2021/12/02 00:12:10;;;;;;;6.22;1.98;;;;;;;;;;5041391;28;20189;-64
2021/12/02 00:14:41;;;;;;;7.22;1.45;;;;;;;;;;5047234;28;20186;-65
2021/12/02 00:17:16;;;;;;;6.55;2.55;;;;;;;;;;5052118;28;20216;-65
2021/12/02 00:22:29;;;;;;;6.32;2.30;;;;;;;;;;5046615;28;20588;-66
2021/12/02 00:24:57;;;;;;;6.80;2.58;;;;;;;;;;5042483;28;20189;-65
2021/12/02 00:27:26;;;;;;;7.30;2.80;;;;;;;;;;5047848;28;20337;-64
2021/12/02 00:29:55;;;;;;;6.85;3.85;;;;;;;;;;5045860;28;20288;-65
2021/12/02 00:32:23;;;;;;;6.43;3.50;;;;;;;;;;5042051;28;20218;-68
2021/12/02 00:34:49;;;;;;;6.18;3.83;;;;;;;;;;5037758;28;20522;-68
2021/12/02 00:37:16;;;;;;;7.57;4.40;;;;;;;;;;5041164;28;20201;-65
2021/12/02 00:39:43;;;;;;;7.20;4.55;;;;;;;;;;5048496;28;20325;-65
2021/12/02 00:42:10;;;;;;;7.95;4.45;;;;;;;;;;5041963;28;20199;-65
2021/12/02 00:44:37;;;;;;;10.95;6.18;;;;;;;;;;5052302;28;20182;-65
2021/12/02 00:47:04;;;;;;;18.55;9.10;;;;;;;;;;5043277;28;20246;-66
2021/12/02 00:49:31;;;;;;;24.48;7.68;;;;;;;;;;5051401;28;20671;-66
2021/12/02 00:52:00;;;;;;;14.73;7.88;;;;;;;;;;5042479;28;20312;-65
2021/12/02 00:54:29;;;;;;;12.00;7.50;;;;;;;;;;5034141;28;20191;-64
2021/12/02 00:56:55;;;;;;;13.98;6.95;;;;;;;;;;5048029;28;20179;-66
2021/12/02 00:59:22;;;;;;;17.10;7.95;;;;;;;;;;5043002;28;20182;-66
2021/12/02 01:01:51;;;;;;;13.45;7.68;;;;;;;;;;5039609;28;20187;-66
2021/12/02 01:04:24;;;;;;;15.75;6.57;;;;;;;;;;5038198;28;20191;-66
2021/12/02 01:06:52;;;;;;;21.52;7.53;;;;;;;;;;5047939;28;20191;-65
2021/12/02 01:09:19;;;;;;;13.52;7.55;;;;;;;;;;5045058;28;20298;-66
2021/12/02 01:11:45;;;;;;;15.80;7.15;;;;;;;;;;5037092;28;20214;-66
2021/12/02 01:14:12;;;;;;;16.90;7.20;;;;;;;;;;5045900;28;20249;-66
2021/12/02 01:16:39;;;;;;;11.15;6.28;;;;;;;;;;5038156;28;20202;-65
2021/12/02 01:19:07;;;;;;;14.13;6.75;;;;;;;;;;5035183;28;20256;-66
2021/12/02 01:21:35;;;;;;;11.60;6.55;;;;;;;;;;5047462;28;20194;-65
2021/12/02 01:24:03;;;;;;;15.88;5.63;;;;;;;;;;5038182;28;20639;-66
2021/12/02 01:26:31;;;;;;;14.45;5.15;;;;;;;;;;5045270;28;20261;-68
2021/12/02 01:28:58;;;;;;;14.27;5.93;;;;;;;;;;5038647;28;20215;-66
2021/12/02 01:31:29;;;;;;;13.05;5.82;;;;;;;;;;5044465;28;20175;-66
2021/12/02 01:33:55;;;;;;;12.52;6.68;;;;;;;;;;5046425;28;20194;-66
2021/12/02 01:36:24;;;;;;;13.98;5.85;;;;;;;;;;5048195;28;20256;-66
2021/12/02 01:38:52;;;;;;;9.23;5.38;;;;;;;;;;5045348;28;20191;-67
2021/12/02 01:41:18;;;;;;;13.43;5.10;;;;;;;;;;5046038;28;20186;-67
2021/12/02 01:43:49;;;;;;;15.75;6.63;;;;;;;;;;5042351;28;20187;-67
2021/12/02 01:46:17;;;;;;;10.63;4.93;;;;;;;;;;5041312;28;20229;-66
2021/12/02 01:48:47;;;;;;;14.10;4.82;;;;;;;;;;5042422;28;20301;-67
2021/12/02 01:51:15;;;;;;;15.90;5.40;;;;;;;;;;5043226;28;20275;-65
2021/12/02 01:53:42;;;;;;;11.23;5.53;;;;;;;;;;5046391;28;20170;-68
2021/12/02 01:56:11;;;;;;;7.85;4.57;;;;;;;;;;5046919;28;20619;-67
2021/12/02 01:58:46;;;;;;;10.48;5.05;;;;;;;;;;5046433;28;20669;-66
2021/12/02 02:01:27;;;;;;;10.88;4.82;;;;;;;;;;5046050;28;20193;-67
2021/12/02 02:03:56;;;;;;;12.73;5.47;;;;;;;;;;5047348;28;20221;-65
2021/12/02 02:06:27;;;;;;;14.68;4.70;;;;;;;;;;5043308;28;20192;-64
2021/12/02 02:08:56;;;;;;;11.10;4.65;;;;;;;;;;5046307;28;20214;-66
2021/12/02 02:11:25;;;;;;;12.60;4.85;;;;;;;;;;5041838;28;20189;-66
2021/12/02 02:13:52;;;;;;;10.82;5.25;;;;;;;;;;5046773;28;20709;-67
2021/12/02 02:16:19;;;;;;;10.10;4.90;;;;;;;;;;5045714;28;20607;-65
2021/12/02 02:18:46;;;;;;;11.80;4.38;;;;;;;;;;5047126;28;20187;-67
2021/12/02 02:21:16;;;;;;;9.75;4.40;;;;;;;;;;5047337;28;20191;-65
2021/12/02 02:23:55;;;;;;;9.52;4.18;;;;;;;;;;5040327;28;20361;-65
2021/12/02 02:26:35;;;;;;;14.50;5.05;;;;;;;;;;5048855;28;20281;-66
2021/12/02 02:29:06;;;;;;;7.63;4.75;;;;;;;;;;5046332;28;20348;-66
2021/12/02 02:31:34;;;;;;;15.45;5.18;;;;;;;;;;5047101;28;20183;-65
2021/12/02 02:34:01;;;;;;;13.45;4.97;;;;;;;;;;5041005;28;20202;-66
2021/12/02 02:36:32;;;;;;;12.43;5.57;;;;;;;;;;5045144;28;20182;-65
2021/12/02 02:39:02;;;;;;;12.32;5.38;;;;;;;;;;5047935;28;20669;-66
2021/12/02 02:41:36;;;;;;;11.20;5.30;;;;;;;;;;5044556;28;20179;-66
2021/12/02 02:44:04;;;;;;;12.40;5.65;;;;;;;;;;5045458;28;20646;-64
2021/12/02 02:46:32;;;;;;;10.73;4.72;;;;;;;;;;5047920;28;20222;-65
2021/12/02 02:49:00;;;;;;;9.77;5.13;;;;;;;;;;5042993;28;20207;-67
2021/12/02 02:51:29;;;;;;;14.40;5.55;;;;;;;;;;5043693;28;20179;-67
2021/12/02 02:53:56;;;;;;;13.50;5.63;;;;;;;;;;5037606;28;20191;-68
2021/12/02 02:56:27;;;;;;;15.93;5.78;;;;;;;;;;5045257;28;20186;-67
2021/12/02 02:59:03;;;;;;;10.20;4.15;;;;;;;;;;5042973;28;20187;-66
2021/12/02 03:12:14;;;;;;;5.47;4.25;;;;;;;;;;5050190;28;20252;-63
2021/12/02 03:17:09;;;;;;;9.00;4.80;;;;;;;;;;5037498;28;20713;-65
2021/12/02 03:19:39;;;;;;;7.95;4.65;;;;;;;;;;5039898;28;20203;-66
2021/12/02 03:22:06;;;;;;;15.98;4.80;;;;;;;;;;5034814;28;20230;-65
2021/12/02 03:24:34;;;;;;;9.52;4.93;;;;;;;;;;5037220;28;20678;-67
2021/12/02 03:27:01;;;;;;;7.38;4.82;;;;;;;;;;5044180;28;20195;-68
2021/12/02 03:29:27;;;;;;;14.98;5.57;;;;;;;;;;5036782;28;20237;-67
2021/12/02 03:31:54;;;;;;;14.38;5.88;;;;;;;;;;5040413;28;20187;-65
2021/12/02 03:34:21;;;;;;;16.58;5.57;;;;;;;;;;5046470;28;20183;-67
2021/12/02 03:36:51;;;;;;;12.63;5.35;;;;;;;;;;5035804;28;20253;-67
2021/12/02 03:39:18;;;;;;;15.32;5.85;;;;;;;;;;5043912;28;20187;-66
2021/12/02 03:41:45;;;;;;;9.80;4.95;;;;;;;;;;5048833;28;20274;-67
2021/12/02 03:44:12;;;;;;;13.75;5.72;;;;;;;;;;5045573;28;20182;-67
2021/12/02 03:46:40;;;;;;;15.98;5.40;;;;;;;;;;5049194;28;20548;-66
2021/12/02 03:49:07;;;;;;;9.80;5.55;;;;;;;;;;5049426;28;20206;-66
2021/12/02 03:51:33;;;;;;;14.10;5.63;;;;;;;;;;5044066;28;20215;-66
2021/12/02 03:54:00;;;;;;;10.73;6.15;;;;;;;;;;5046239;28;20206;-67
2021/12/02 03:56:26;;;;;;;9.75;4.40;;;;;;;;;;5046326;28;20255;-66
2021/12/02 03:58:53;;;;;;;8.85;5.10;;;;;;;;;;5036640;28;20675;-67
2021/12/02 04:01:21;;;;;;;12.18;5.28;;;;;;;;;;5035889;28;20564;-66
2021/12/02 04:03:47;;;;;;;9.52;4.90;;;;;;;;;;5045532;28;20183;-67
2021/12/02 04:06:15;;;;;;;14.02;6.00;;;;;;;;;;5045744;28;20274;-67
2021/12/02 04:16:31;;;;;;;6.80;4.22;;;;;;;;;;5050493;28;20559;-67
2021/12/02 04:18:57;;;;;;;8.20;4.00;;;;;;;;;;5035359;28;20289;-67
2021/12/02 04:21:24;;;;;;;11.27;4.45;;;;;;;;;;5037953;28;20182;-67
2021/12/02 04:23:51;;;;;;;10.93;5.53;;;;;;;;;;5044067;28;20228;-66
2021/12/02 04:26:18;;;;;;;8.98;4.80;;;;;;;;;;5043220;28;20299;-66
2021/12/02 04:28:46;;;;;;;9.75;5.05;;;;;;;;;;5036914;28;20218;-66
2021/12/02 04:31:12;;;;;;;12.80;5.07;;;;;;;;;;5035567;28;20675;-67
2021/12/02 04:33:39;;;;;;;10.43;4.97;;;;;;;;;;5033684;28;20211;-66
2021/12/02 04:36:06;;;;;;;9.40;4.63;;;;;;;;;;5033558;28;20647;-67
2021/12/02 04:38:33;;;;;;;14.57;5.43;;;;;;;;;;5042099;28;20192;-67
2021/12/02 04:41:01;;;;;;;10.25;4.70;;;;;;;;;;5039395;28;20627;-66
2021/12/02 04:43:27;;;;;;;10.95;5.22;;;;;;;;;;5043780;28;20678;-66
2021/12/02 04:45:55;;;;;;;8.18;4.47;;;;;;;;;;5042349;28;20273;-66
2021/12/02 04:48:21;;;;;;;11.50;4.60;;;;;;;;;;5045237;28;20960;-66
2021/12/02 04:50:48;;;;;;;12.57;4.82;;;;;;;;;;5038715;28;20246;-66
2021/12/02 04:53:15;;;;;;;7.15;5.18;;;;;;;;;;5035703;28;20256;-67
2021/12/02 04:55:42;;;;;;;10.18;4.82;;;;;;;;;;5032936;28;20179;-65
2021/12/02 04:58:08;;;;;;;16.00;5.22;;;;;;;;;;5036596;28;20190;-66
2021/12/02 05:00:35;;;;;;;8.82;4.70;;;;;;;;;;5045174;28;20222;-66
2021/12/02 05:03:01;;;;;;;12.32;5.38;;;;;;;;;;5035329;28;20176;-66
2021/12/02 05:05:29;;;;;;;15.32;5.13;;;;;;;;;;5036708;28;20184;-65
2021/12/02 05:07:59;;;;;;;13.00;5.97;;;;;;;;;;5036045;28;20189;-67
2021/12/02 05:10:26;;;;;;;8.88;5.90;;;;;;;;;;5037601;28;20265;-66
2021/12/02 05:12:53;;;;;;;14.82;5.75;;;;;;;;;;5043064;28;20186;-66
2021/12/02 05:15:21;;;;;;;8.55;5.60;;;;;;;;;;5043936;28;20365;-67
2021/12/02 05:17:47;;;;;;;9.88;5.32;;;;;;;;;;5041797;28;20559;-65
2021/12/02 05:20:14;;;;;;;8.27;5.65;;;;;;;;;;5039561;28;20301;-66
2021/12/02 05:22:41;;;;;;;12.30;6.03;;;;;;;;;;5042723;28;20757;-66
2021/12/02 05:25:08;;;;;;;12.45;5.30;;;;;;;;;;5041982;28;20297;-66
2021/12/02 05:27:36;;;;;;;11.00;5.28;;;;;;;;;;5044621;28;20287;-65
2021/12/02 05:30:02;;;;;;;7.97;5.78;;;;;;;;;;5037047;28;20400;-65
2021/12/02 05:32:32;;;;;;;8.27;5.05;;;;;;;;;;5048300;28;20225;-66
2021/12/02 05:35:00;;;;;;;13.77;5.75;;;;;;;;;;5049197;28;20183;-66
2021/12/02 05:37:29;;;;;;;7.55;4.65;;;;;;;;;;5040372;28;20199;-66
2021/12/02 05:39:55;;;;;;;11.75;5.78;;;;;;;;;;5037284;28;20248;-66
2021/12/02 05:42:22;;;;;;;14.45;5.70;;;;;;;;;;5041975;28;20189;-66
2021/12/02 05:44:48;;;;;;;10.82;5.25;;;;;;;;;;5045443;28;20661;-66
2021/12/02 05:47:15;;;;;;;13.68;6.07;;;;;;;;;;5038010;28;21064;-65
2021/12/02 05:49:42;;;;;;;10.25;4.63;;;;;;;;;;5044604;28;20202;-66
2021/12/02 05:52:09;;;;;;;9.82;5.18;;;;;;;;;;5040968;28;20204;-65
2021/12/02 05:54:35;;;;;;;10.88;5.82;;;;;;;;;;5044358;28;20171;-66
2021/12/02 05:57:02;;;;;;;10.68;5.90;;;;;;;;;;5035616;28;20273;-65
2021/12/02 05:59:28;;;;;;;10.32;4.88;;;;;;;;;;5042143;28;20178;-66
2021/12/02 06:01:55;;;;;;;10.45;5.20;;;;;;;;;;5045548;28;20190;-65
2021/12/02 06:04:21;;;;;;;9.70;4.82;;;;;;;;;;5041188;28;20228;-66
2021/12/02 06:06:49;;;;;;;10.45;4.65;;;;;;;;;;5040246;28;20209;-65
2021/12/02 06:09:18;;;;;;;7.50;5.35;;;;;;;;;;5038025;28;20757;-66
2021/12/02 06:11:45;;;;;;;10.98;5.68;;;;;;;;;;5044520;28;20291;-64
2021/12/02 06:14:13;;;;;;;8.27;5.10;;;;;;;;;;5047857;28;20202;-65
2021/12/02 06:16:39;;;;;;;9.10;4.82;;;;;;;;;;5048388;28;20244;-65
2021/12/02 06:19:06;;;;;;;8.93;5.47;;;;;;;;;;5047013;28;20233;-66
2021/12/02 06:21:33;;;;;;;18.38;6.53;;;;;;;;;;5043125;28;20248;-65
2021/12/02 06:24:01;;;;;;;10.82;5.85;;;;;;;;;;5038733;28;20499;-66
2021/12/02 06:26:28;;;;;;;8.68;6.30;;;;;;;;;;5038190;28;20723;-66
2021/12/02 06:28:54;;;;;;;12.40;5.65;;;;;;;;;;5045201;28;20210;-65
2021/12/02 06:31:21;;;;;;;9.82;5.88;;;;;;;;;;5039950;28;20256;-66
2021/12/02 06:33:48;;;;;;;13.82;6.15;;;;;;;;;;5042723;28;20186;-65
2021/12/02 06:36:14;;;;;;;12.55;6.20;;;;;;;;;;5044154;28;20627;-66
2021/12/02 06:38:42;;;;;;;21.60;7.20;;;;;;;;;;5043276;28;20270;-66
2021/12/02 06:41:08;;;;;;;12.57;5.93;;;;;;;;;;5042223;28;20653;-66
2021/12/02 06:43:35;;;;;;;12.10;6.70;;;;;;;;;;5048172;28;20305;-66
2021/12/02 06:46:01;;;;;;;12.77;6.45;;;;;;;;;;5048647;28;20293;-65
2021/12/02 06:48:28;;;;;;;9.88;5.93;;;;;;;;;;5049246;28;20195;-65
2021/12/02 06:50:54;;;;;;;11.43;5.50;;;;;;;;;;5049525;28;20270;-66
2021/12/02 06:53:21;;;;;;;14.10;6.67;;;;;;;;;;5040503;28;20232;-67
2021/12/02 06:55:48;;;;;;;14.25;7.32;;;;;;;;;;5040294;28;20218;-67
2021/12/02 06:58:14;;;;;;;15.07;7.03;;;;;;;;;;5042441;28;20190;-66
2021/12/02 07:00:41;;;;;;;11.83;7.30;;;;;;;;;;5049425;28;20539;-65
2021/12/02 07:03:07;;;;;;;18.17;7.65;;;;;;;;;;5040161;28;20669;-65
2021/12/02 07:05:34;;;;;;;15.00;7.20;;;;;;;;;;5041193;28;20271;-65
2021/12/02 07:08:01;;;;;;;11.95;6.05;;;;;;;;;;5040645;28;20604;-65
2021/12/02 07:10:30;;;;;;;12.07;7.10;;;;;;;;;;5038197;28;20393;-67
2021/12/02 07:12:58;;;;;;;15.80;6.37;;;;;;;;;;5032092;28;20215;-66
2021/12/02 07:15:31;;;;;;;17.60;8.25;;;;;;;;;;5044054;28;20240;-67
2021/12/02 07:17:59;;;;;;;13.33;6.97;;;;;;;;;;5038174;28;20248;-65
2021/12/02 07:20:33;;;;;;;15.80;7.87;;;;;;;;;;5033453;28;20264;-66
2021/12/02 07:23:00;;;;;;;10.17;6.40;;;;;;;;;;5040347;28;20237;-66
2021/12/02 07:25:27;;;;;;;15.70;7.32;;;;;;;;;;5046583;28;20191;-66
2021/12/02 07:27:54;;;;;;;14.87;6.90;;;;;;;;;;5048492;28;20194;-66
2021/12/02 07:30:21;;;;;;;11.80;6.80;;;;;;;;;;5034506;28;20230;-65
2021/12/02 07:32:52;;;;;;;12.60;6.93;;;;;;;;;;5052620;28;20251;-65
2021/12/02 07:35:18;;;;;;;12.70;7.43;;;;;;;;;;5043875;28;20583;-65
2021/12/02 07:37:47;;;;;;;12.07;6.80;;;;;;;;;;5041840;28;20249;-65
2021/12/02 07:40:14;;;;;;;11.38;6.55;;;;;;;;;;5049367;28;20204;-64
2021/12/02 07:42:41;;;;;;;13.00;6.53;;;;;;;;;;5045794;28;20644;-66
2021/12/02 07:45:08;;;;;;;18.17;8.23;;;;;;;;;;5043404;28;20198;-63
2021/12/02 07:47:35;;;;;;;19.70;7.72;;;;;;;;;;5052381;28;20266;-64
2021/12/02 07:50:01;;;;;;;10.60;7.07;;;;;;;;;;5043350;28;20217;-64
2021/12/02 07:52:30;;;;;;;14.07;6.60;;;;;;;;;;5052730;28;20269;-64
2021/12/02 07:54:57;;;;;;;16.10;7.27;;;;;;;;;;5051188;28;20202;-65
2021/12/02 07:57:23;;;;;;;13.73;8.07;;;;;;;;;;5035781;28;20550;-66
2021/12/02 07:59:50;;;;;;;16.47;7.10;;;;;;;;;;5039715;28;20669;-65
2021/12/02 08:02:17;;;;;;;19.30;7.67;;;;;;;;;;5045674;28;20192;-65
2021/12/02 08:04:44;;;;;;;12.97;6.70;;;;;;;;;;5052335;28;20186;-66
2021/12/02 08:07:10;;;;;;;16.37;7.67;;;;;;;;;;5042309;28;20650;-65
2021/12/02 08:09:37;;;;;;;13.20;7.30;;;;;;;;;;5043215;28;20198;-65
2021/12/02 08:12:03;;;;;;;9.23;7.10;;;;;;;;;;5051285;28;20685;-65
2021/12/02 08:14:30;;;;;;;14.80;6.47;;;;;;;;;;5047427;28;20197;-65
2021/12/02 08:16:57;;;;;;;10.30;6.10;;;;;;;;;;5046535;28;20248;-66
2021/12/02 08:19:23;;;;;;;12.03;8.27;;;;;;;;;;5043033;28;20355;-64
2021/12/02 08:21:51;;;;;;;10.80;6.87;;;;;;;;;;5037729;28;20223;-64
2021/12/02 08:24:23;;;;;;;15.87;6.93;;;;;;;;;;5043810;28;20644;-64
2021/12/02 08:26:49;;;;;;;14.00;7.07;;;;;;;;;;5039322;28;20187;-64
2021/12/02 08:29:16;;;;;;;10.83;6.90;;;;;;;;;;5040495;28;20211;-65
2021/12/02 08:31:43;;;;;;;18.40;6.97;;;;;;;;;;5040682;28;20285;-66
2021/12/02 08:34:09;;;;;;;19.93;7.80;;;;;;;;;;5046561;28;20191;-64
2021/12/02 08:36:46;;;;;;;18.60;8.03;;;;;;;;;;5046779;28;20190;-65
2021/12/02 08:39:17;;;;;;;12.67;7.40;;;;;;;;;;5047991;28;20198;-64
2021/12/02 08:41:48;;;;;;;20.13;6.97;;;;;;;;;;5045583;28;20193;-65
2021/12/02 08:44:14;;;;;;;16.27;6.57;;;;;;;;;;5038072;28;20339;-65
2021/12/02 08:46:41;;;;;;;9.57;6.50;;;;;;;;;;5051042;28;20704;-66
2021/12/02 08:49:08;;;;;;;21.80;7.30;;;;;;;;;;5040505;28;20221;-64
2021/12/02 08:51:34;;;;;;;16.60;6.70;;;;;;;;;;5050373;28;20511;-64
2021/12/02 08:54:01;;;;;;;14.23;6.70;;;;;;;;;;5037018;28;20194;-65
2021/12/02 08:56:28;;;;;;;15.77;7.70;;;;;;;;;;5045347;28;20274;-65
2021/12/02 08:58:54;;;;;;;19.40;7.50;;;;;;;;;;5041236;28;20249;-65
2021/12/02 09:01:21;;;;;;;12.00;6.03;;;;;;;;;;5047967;28;20185;-65
2021/12/02 09:03:47;;;;;;;11.60;6.63;;;;;;;;;;5040324;28;20191;-65
2021/12/02 09:06:14;;;;;;;14.50;6.37;;;;;;;;;;5035776;28;20563;-65
2021/12/02 09:08:41;;;;;;;18.23;7.30;;;;;;;;;;5044140;28;20229;-65
2021/12/02 09:11:10;;;;;;;14.23;7.20;;;;;;;;;;5048343;28;20277;-65
2021/12/02 09:13:36;;;;;;;12.53;7.10;;;;;;;;;;5038147;28;20184;-65
2021/12/02 09:16:03;;;;;;;12.23;6.70;;;;;;;;;;5038739;28;20190;-64
2021/12/02 09:18:29;;;;;;;20.33;8.10;;;;;;;;;;5036476;28;20610;-65
2021/12/02 09:20:57;;;;;;;16.93;7.60;;;;;;;;;;5045685;28;20226;-65
2021/12/02 09:23:23;;;;;;;21.10;7.73;;;;;;;;;;5046749;28;20756;-66
2021/12/02 09:25:50;;;;;;;20.43;7.33;;;;;;;;;;5043283;28;20191;-64
2021/12/02 09:28:16;;;;;;;15.47;8.17;;;;;;;;;;5046802;28;20734;-62
2021/12/02 09:30:43;;;;;;;17.50;7.07;;;;;;;;;;5043294;28;20195;-64
2021/12/02 09:33:10;;;;;;;12.40;6.40;;;;;;;;;;5042049;28;20179;-65
2021/12/02 09:35:36;;;;;;;19.17;7.23;;;;;;;;;;5050753;28;20319;-65
2021/12/02 09:38:05;;;;;;;26.17;7.80;;;;;;;;;;5042310;28;20191;-65
2021/12/02 09:40:32;;;;;;;10.93;6.33;;;;;;;;;;5050594;28;20180;-64
2021/12/02 09:42:58;;;;;;;11.30;6.63;;;;;;;;;;5041302;28;20190;-64
2021/12/02 09:45:25;;;;;;;12.87;6.37;;;;;;;;;;5046495;28;20192;-65
2021/12/02 09:47:52;;;;;;;15.67;7.67;;;;;;;;;;5038894;28;20198;-65
2021/12/02 09:50:35;;;;;;;11.47;6.97;;;;;;;;;;5037000;28;20235;-64
2021/12/02 09:53:08;;;;;;;15.40;8.07;;;;;;;;;;5034563;28;20225;-65
2021/12/02 09:58:23;;;;;;;17.67;7.23;;;;;;;;;;5036724;28;20196;-65
2021/12/02 10:00:57;;;;;;;15.33;7.60;;;;;;;;;;5049836;28;20189;-65
2021/12/02 10:03:47;;;;;;;16.80;7.77;;;;;;;;;;5043332;28;21225;-65
2021/12/02 10:06:18;;;;;;;13.13;6.87;;;;;;;;;;5038671;28;20559;-65
2021/12/02 10:09:05;;;;;;;18.33;7.23;;;;;;;;;;5032185;28;20213;-64
2021/12/02 10:11:39;;;;;;;15.97;7.83;;;;;;;;;;5041853;28;20203;-65
2021/12/02 10:14:14;;;;;;;14.17;7.37;;;;;;;;;;5045930;28;20172;-65
2021/12/02 10:16:45;;;;;;;15.53;7.47;;;;;;;;;;5041397;28;20189;-65
2021/12/02 10:19:16;;;;;;;11.43;6.77;;;;;;;;;;5039784;28;20305;-64
2021/12/02 10:24:12;;;;;;;14.57;8.30;;;;;;;;;;5047662;28;20214;-64
2021/12/02 10:26:41;;;;;;;21.60;8.00;;;;;;;;;;5039023;28;20193;-65
2021/12/02 10:29:12;;;;;;;14.07;7.70;;;;;;;;;;5037132;28;20215;-64
2021/12/02 10:31:39;;;;;;;12.93;7.70;;;;;;;;;;5043361;28;20193;-64
2021/12/02 10:34:07;;;;;;;14.87;7.93;;;;;;;;;;5047187;28;20194;-64
2021/12/02 10:36:36;;;;;;;12.40;6.57;;;;;;;;;;5047249;28;20186;-64
2021/12/02 10:39:08;;;;;;;14.23;8.00;;;;;;;;;;5040183;28;20227;-65
2021/12/02 10:41:35;;;;;;;23.90;7.23;;;;;;;;;;5046518;28;20197;-64
2021/12/02 10:44:23;;;;;;;14.67;7.33;;;;;;;;;;5047664;28;20198;-64
2021/12/02 10:46:54;;;;;;;15.37;7.43;;;;;;;;;;5039660;28;20198;-64
2021/12/02 10:49:21;;;;;;;16.07;8.07;;;;;;;;;;5045676;28;20310;-64
2021/12/02 10:51:50;;;;;;;11.97;7.67;;;;;;;;;;5046184;28;20205;-64
2021/12/02 10:54:27;;;;;;;14.87;6.77;;;;;;;;;;5047228;28;20635;-64
2021/12/02 10:56:55;;;;;;;19.27;8.03;;;;;;;;;;5049140;28;20186;-63
2021/12/02 10:59:41;;;;;;;13.80;7.63;;;;;;;;;;5037658;28;20281;-64
2021/12/02 11:02:16;;;;;;;10.97;7.33;;;;;;;;;;5039153;28;20186;-64
2021/12/02 11:04:44;;;;;;;18.17;8.23;;;;;;;;;;5040382;28;20189;-64
2021/12/02 11:07:13;;;;;;;19.27;8.27;;;;;;;;;;5039755;28;20190;-64
2021/12/02 11:09:40;;;;;;;14.50;7.27;;;;;;;;;;5043368;28;20214;-64
2021/12/02 11:12:11;;;;;;;14.53;8.03;;;;;;;;;;5046608;28;20191;-64
2021/12/02 11:14:40;;;;;;;11.23;7.07;;;;;;;;;;5043932;28;20201;-64
2021/12/02 11:17:08;;;;;;;24.43;9.30;;;;;;;;;;5038074;28;20256;-64
2021/12/02 11:19:34;;;;;;;17.40;7.83;;;;;;;;;;5036378;28;20199;-64
2021/12/02 11:22:05;;;;;;;12.60;7.87;;;;;;;;;;5036667;28;20298;-64
2021/12/02 11:24:33;;;;;;;11.03;7.93;;;;;;;;;;5030306;28;20496;-64
2021/12/02 11:27:09;;;;;;;16.00;8.17;;;;;;;;;;5031972;28;20185;-64
2021/12/02 11:29:48;;;;;;;21.83;7.30;;;;;;;;;;5039684;28;20379;-64
2021/12/02 11:32:32;;;;;;;12.10;7.13;;;;;;;;;;5041551;28;20213;-64
2021/12/02 11:35:04;;;;;;;20.07;9.33;;;;;;;;;;5047595;28;20223;-64
2021/12/02 11:37:32;;;;;;;19.20;8.50;;;;;;;;;;5048476;28;20246;-64
2021/12/02 11:40:01;;;;;;;14.53;7.93;;;;;;;;;;5045062;28;20590;-64
2021/12/02 11:42:28;;;;;;;9.83;7.73;;;;;;;;;;5046491;28;20215;-64
2021/12/02 11:44:55;;;;;;;15.17;9.57;;;;;;;;;;5047971;28;20275;-64
2021/12/02 11:47:21;;;;;;;14.23;8.67;;;;;;;;;;5046077;28;20192;-64
2021/12/02 11:49:49;;;;;;;14.63;8.90;;;;;;;;;;5045723;28;20244;-65
2021/12/02 11:52:15;;;;;;;18.40;9.13;;;;;;;;;;5044632;28;20195;-65
2021/12/02 11:54:43;;;;;;;15.17;8.23;;;;;;;;;;5041411;28;20198;-64
2021/12/02 11:57:09;;;;;;;18.30;9.43;;;;;;;;;;5046261;28;20196;-64
2021/12/02 11:59:36;;;;;;;18.27;9.57;;;;;;;;;;5041593;28;20198;-64
2021/12/02 12:02:03;;;;;;;16.67;9.70;;;;;;;;;;5042678;28;20187;-64
2021/12/02 12:04:31;;;;;;;13.83;9.10;;;;;;;;;;5038177;28;20235;-64
2021/12/02 12:07:13;;;;;;;16.60;8.67;;;;;;;;;;5046449;28;20276;-64
2021/12/02 12:09:40;;;;;;;28.33;9.87;;;;;;;;;;5042077;28;20238;-64
2021/12/02 12:12:06;;;;;;;18.13;9.57;;;;;;;;;;5035012;28;20188;-64
2021/12/02 12:14:37;;;;;;;21.47;9.80;;;;;;;;;;5041059;28;20207;-64
2021/12/02 12:17:05;;;;;;;17.30;9.73;;;;;;;;;;5046128;28;20187;-64
2021/12/02 12:19:33;;;;;;;21.40;10.80;;;;;;;;;;5044881;28;20569;-64
2021/12/02 12:22:01;;;;;;;22.17;10.20;;;;;;;;;;5048709;28;20242;-64
2021/12/02 12:24:47;;;;;;;25.07;11.27;;;;;;;;;;5033786;28;20199;-64
2021/12/02 12:27:24;;;;;;;20.00;11.43;;;;;;;;;;5040909;28;20218;-64
2021/12/02 12:30:02;;;;;;;25.47;11.20;;;;;;;;;;5052252;28;20210;-66
2021/12/02 12:38:25;;;;;;;21.20;10.07;;;;;;;;;;5038467;28;20199;-65
2021/12/02 12:40:56;;;;;;;20.77;9.80;;;;;;;;;;5043245;28;20266;-65
2021/12/02 12:43:25;;;;;;;13.50;9.60;;;;;;;;;;5043594;28;20182;-64
2021/12/02 12:46:03;;;;;;;17.03;10.87;;;;;;;;;;5038216;28;20202;-65
2021/12/02 12:48:30;;;;;;;17.30;11.10;;;;;;;;;;5048315;28;20178;-64
2021/12/02 12:51:10;;;;;;;24.63;10.83;;;;;;;;;;5045608;28;20187;-64
2021/12/02 12:53:37;;;;;;;28.40;11.83;;;;;;;;;;5047125;28;20193;-64
2021/12/02 12:56:08;;;;;;;17.73;12.90;;;;;;;;;;5042224;28;20192;-64
2021/12/02 12:58:56;;;;;;;25.07;12.83;;;;;;;;;;5047169;28;20318;-64
2021/12/02 13:01:24;;;;;;;27.20;13.03;;;;;;;;;;5039355;28;20188;-64
2021/12/02 13:04:09;;;;;;;20.27;13.33;;;;;;;;;;5041763;28;20282;-64
2021/12/02 13:06:49;;;;;;;22.13;13.07;;;;;;;;;;5041402;28;20176;-64
2021/12/02 13:09:35;;;;;;;30.40;14.37;;;;;;;;;;5038305;28;20217;-64
2021/12/02 13:12:04;;;;;;;30.97;12.90;;;;;;;;;;5047187;28;20266;-64
2021/12/02 13:14:30;;;;;;;24.27;11.93;;;;;;;;;;5047376;28;20318;-65
2021/12/02 13:16:57;;;;;;;25.77;13.10;;;;;;;;;;5043086;28;20189;-64
2021/12/02 13:19:23;;;;;;;20.63;12.37;;;;;;;;;;5044039;28;20199;-63
2021/12/02 13:21:57;;;;;;;21.03;13.33;;;;;;;;;;5042656;28;20567;-63
2021/12/02 13:24:33;;;;;;;23.33;13.13;;;;;;;;;;5048538;28;20181;-64
2021/12/02 13:27:05;;;;;;;26.03;13.13;;;;;;;;;;5044646;28;20191;-63
2021/12/02 13:29:34;;;;;;;24.07;12.17;;;;;;;;;;5042665;28;20210;-63
2021/12/02 13:32:10;;;;;;;24.23;13.23;;;;;;;;;;5036509;28;20190;-63
2021/12/02 13:34:37;;;;;;;19.73;12.67;;;;;;;;;;5036153;28;20183;-65
2021/12/02 13:37:05;;;;;;;23.77;11.60;;;;;;;;;;5036202;28;20193;-64
2021/12/02 13:39:33;;;;;;;20.23;11.77;;;;;;;;;;5034028;28;20192;-64
2021/12/02 13:42:09;;;;;;;21.47;11.13;;;;;;;;;;5046520;28;20598;-64
2021/12/02 13:44:39;;;;;;;26.90;12.23;;;;;;;;;;5033685;28;20244;-64
2021/12/02 13:47:12;;;;;;;23.53;11.43;;;;;;;;;;5039274;28;20659;-64
2021/12/02 13:49:42;;;;;;;27.13;12.33;;;;;;;;;;5040396;28;20305;-64
2021/12/02 13:54:57;;;;;;;21.87;10.93;;;;;;;;;;5045298;28;20217;-65
2021/12/02 13:57:51;;;;;;;22.93;9.87;;;;;;;;;;5035240;28;20689;-66
2021/12/02 14:00:19;;;;;;;19.57;9.33;;;;;;;;;;5039174;28;20190;-65
2021/12/02 14:02:48;;;;;;;26.25;9.90;;;;;;;;;;5044847;28;20277;-64
2021/12/02 14:05:16;;;;;;;21.87;10.63;;;;;;;;;;5046406;28;20209;-65
2021/12/02 14:07:44;;;;;;;43.67;11.45;;;;;;;;;;5041637;28;20255;-64
2021/12/02 14:10:12;;;;;;;18.77;10.07;;;;;;;;;;5042093;28;20218;-65
2021/12/02 14:12:39;;;;;;;18.38;10.07;;;;;;;;;;5038632;28;20520;-64
2021/12/02 14:15:10;;;;;;;24.77;9.40;;;;;;;;;;5039943;28;20180;-65
2021/12/02 14:17:48;;;;;;;21.42;9.73;;;;;;;;;;5044268;28;20178;-64
2021/12/02 14:20:15;;;;;;;15.20;8.77;;;;;;;;;;5041430;28;20710;-64
2021/12/02 14:22:44;;;;;;;18.80;9.80;;;;;;;;;;5043924;28;20232;-64
2021/12/02 14:25:12;;;;;;;23.52;9.40;;;;;;;;;;5031228;28;20219;-64
2021/12/02 14:27:39;;;;;;;17.83;8.83;;;;;;;;;;5045739;28;20207;-64
2021/12/02 14:30:18;;;;;;;26.93;9.00;;;;;;;;;;5041628;28;20294;-64
2021/12/02 14:32:47;;;;;;;19.40;9.67;;;;;;;;;;5042329;28;20218;-64
2021/12/02 14:35:15;;;;;;;21.35;10.77;;;;;;;;;;5039276;28;20217;-65
2021/12/02 14:37:43;;;;;;;21.52;9.90;;;;;;;;;;5036403;28;20178;-65
2021/12/02 14:40:11;;;;;;;19.00;9.65;;;;;;;;;;5040029;28;20191;-65
2021/12/02 14:42:38;;;;;;;26.50;10.68;;;;;;;;;;5043053;28;20263;-65
2021/12/02 14:45:23;;;;;;;26.85;10.80;;;;;;;;;;5040309;28;20179;-66
2021/12/02 14:47:51;;;;;;;28.67;10.35;;;;;;;;;;5040557;28;20183;-66
2021/12/02 14:50:17;;;;;;;24.73;10.60;;;;;;;;;;5046279;28;20534;-64
2021/12/02 14:52:48;;;;;;;16.00;10.20;;;;;;;;;;5040430;28;20266;-65
2021/12/02 14:55:22;;;;;;;24.40;9.82;;;;;;;;;;5038145;28;20245;-64
2021/12/02 14:57:49;;;;;;;19.15;9.40;;;;;;;;;;5043028;28;20194;-64
2021/12/02 15:00:18;;;;;;;14.35;9.63;;;;;;;;;;5042212;28;20206;-65
2021/12/02 15:02:47;;;;;;;17.75;9.50;;;;;;;;;;5044201;28;20187;-63
2021/12/02 15:05:16;;;;;;;25.13;10.27;;;;;;;;;;5046136;28;20243;-64
2021/12/02 15:07:53;;;;;;;16.30;9.40;;;;;;;;;;5049162;28;20186;-65
2021/12/02 15:10:21;;;;;;;20.27;9.07;;;;;;;;;;5038923;28;20207;-64
2021/12/02 15:12:52;;;;;;;15.45;9.05;;;;;;;;;;5048114;28;20194;-65
2021/12/02 15:15:20;;;;;;;22.10;9.32;;;;;;;;;;5041679;28;20644;-64
2021/12/02 15:17:52;;;;;;;16.95;9.63;;;;;;;;;;5039429;28;20273;-64
2021/12/02 15:20:20;;;;;;;18.85;9.63;;;;;;;;;;5035465;28;20362;-64